createdAt,value
2023-02-14T00:02:25.540Z,38.57
2023-02-14T00:04:53.005Z,37.57
2023-02-14T00:07:20.407Z,33.90
2023-02-14T00:09:47.780Z,37.63
2023-02-14T00:12:15.169Z,34.97
2023-02-14T00:15:01.301Z,49.53
2023-02-14T00:17:29.076Z,47.57
2023-02-14T00:19:56.445Z,40.83
2023-02-14T00:22:24.000Z,40.57
2023-02-14T00:24:51.447Z,37.53
2023-02-14T00:27:18.885Z,39.93
2023-02-14T00:29:46.260Z,43.90
2023-02-14T00:32:13.917Z,50.93
2023-02-14T00:34:41.414Z,43.40
2023-02-14T00:37:11.086Z,49.87
2023-02-14T00:39:39.234Z,53.40
2023-02-14T00:42:06.662Z,48.03
2023-02-14T00:44:34.001Z,46.53
2023-02-14T00:47:01.434Z,45.50
2023-02-14T00:49:29.900Z,49.07
2023-02-14T00:51:59.725Z,50.93
2023-02-14T00:54:27.380Z,62.30
2023-02-14T00:56:54.766Z,49.47
2023-02-14T00:59:22.137Z,44.43
2023-02-14T01:01:49.575Z,50.80
2023-02-14T01:04:16.965Z,49.23
2023-02-14T01:06:46.248Z,53.57
2023-02-14T01:09:14.025Z,48.40
2023-02-14T01:11:41.746Z,53.10
2023-02-14T01:14:09.122Z,48.30
2023-02-14T01:16:36.782Z,46.33
2023-02-14T01:19:04.250Z,52.33
2023-02-14T01:21:32.977Z,46.00
2023-02-14T01:24:02.135Z,48.23
2023-02-14T01:26:29.619Z,57.70
2023-02-14T01:28:57.148Z,90.73
2023-02-14T01:31:28.117Z,48.03
2023-02-14T01:33:57.448Z,53.57
2023-02-14T01:36:26.308Z,66.50
2023-02-14T01:38:57.261Z,81.73
2023-02-14T01:41:25.706Z,70.07
2023-02-14T01:43:58.429Z,62.47
2023-02-14T01:46:27.302Z,59.50
2023-02-14T01:49:11.642Z,58.00
2023-02-14T01:51:40.240Z,60.27
2023-02-14T01:54:08.696Z,73.00
2023-02-14T01:56:40.335Z,81.73
2023-02-14T01:59:08.780Z,90.03
2023-02-14T02:01:36.253Z,176.47
2023-02-14T02:04:08.062Z,124.73
2023-02-14T02:06:38.467Z,85.20
2023-02-14T02:09:17.199Z,63.70
2023-02-14T02:11:44.814Z,56.30
2023-02-14T02:14:17.500Z,70.63
2023-02-14T02:16:50.526Z,118.97
2023-02-14T02:19:32.338Z,72.03
2023-02-14T02:22:02.866Z,55.83
2023-02-14T02:24:45.709Z,66.63
2023-02-14T02:27:19.247Z,62.67
2023-02-14T02:29:52.767Z,61.57
2023-02-14T02:32:33.461Z,52.17
2023-02-14T02:35:21.042Z,49.03
2023-02-14T02:37:48.386Z,54.30
2023-02-14T02:40:23.002Z,54.17
2023-02-14T02:42:55.490Z,51.97
2023-02-14T02:45:29.487Z,44.07
2023-02-14T02:51:39.993Z,59.90
2023-02-14T02:54:11.801Z,48.27
2023-02-14T02:56:47.356Z,52.40
2023-02-14T02:59:34.916Z,70.97
2023-02-14T03:02:02.244Z,75.37
2023-02-14T03:04:52.613Z,66.00
2023-02-14T03:07:38.089Z,90.40
2023-02-14T03:10:15.493Z,128.37
2023-02-14T03:12:50.520Z,165.03
2023-02-14T03:15:22.254Z,84.17
2023-02-14T03:18:26.281Z,146.20
2023-02-14T03:21:04.434Z,115.30
2023-02-14T03:23:39.638Z,110.10
2023-02-14T03:26:14.863Z,177.50
2023-02-14T03:29:01.906Z,139.60
2023-02-14T03:31:47.703Z,103.87
2023-02-14T03:34:32.349Z,113.57
2023-02-14T03:37:02.522Z,91.77
2023-02-14T03:39:42.262Z,210.67
2023-02-14T03:42:22.080Z,98.73
2023-02-14T03:44:51.127Z,146.27
2023-02-14T03:47:20.599Z,170.90
2023-02-14T03:49:51.365Z,212.33
2023-02-14T03:52:19.049Z,134.73
2023-02-14T03:54:48.929Z,137.63
2023-02-14T03:57:20.621Z,163.87
2023-02-14T03:59:51.077Z,264.40
2023-02-14T04:02:22.409Z,398.90
2023-02-14T04:04:51.009Z,1107.37
2023-02-14T04:07:20.123Z,527.43
2023-02-14T04:09:47.870Z,726.27
2023-02-14T04:12:16.916Z,504.90
2023-02-14T04:14:45.841Z,1131.50
2023-02-14T04:17:32.265Z,908.60
2023-02-14T04:19:59.832Z,242.20
2023-02-14T04:22:27.597Z,734.27
2023-02-14T04:24:54.939Z,1122.43
2023-02-14T04:27:22.276Z,552.70
2023-02-14T04:29:50.431Z,600.30
2023-02-14T04:32:20.080Z,457.30
2023-02-14T04:34:47.653Z,735.97
2023-02-14T04:37:16.644Z,552.57
2023-02-14T04:39:44.069Z,817.17
2023-02-14T04:42:11.868Z,837.53
2023-02-14T04:44:39.374Z,136.93
2023-02-14T04:47:07.296Z,120.77
2023-02-14T04:49:35.000Z,124.63
2023-02-14T04:52:02.303Z,515.80
2023-02-14T04:54:29.756Z,88.10
2023-02-14T04:56:57.096Z,108.53
2023-02-14T04:59:25.155Z,109.03
2023-02-14T05:01:53.334Z,289.58
2023-02-14T05:04:21.469Z,371.20
2023-02-14T05:06:48.922Z,62.13
2023-02-14T05:09:16.602Z,314.40
2023-02-14T05:11:43.988Z,78.90
2023-02-14T05:14:11.399Z,70.77
2023-02-14T05:16:38.959Z,98.57
2023-02-14T05:19:06.475Z,451.03
2023-02-14T05:21:33.924Z,118.17
2023-02-14T05:24:01.885Z,82.37
2023-02-14T05:26:32.714Z,98.97
2023-02-14T05:29:00.103Z,61.23
2023-02-14T05:31:27.523Z,163.80
2023-02-14T05:33:54.916Z,138.87
2023-02-14T05:36:22.407Z,281.17
2023-02-14T05:38:50.299Z,241.23
2023-02-14T05:41:17.795Z,1999.90
2023-02-14T05:43:45.178Z,635.90
2023-02-14T05:46:12.626Z,216.10
2023-02-14T05:48:40.012Z,80.47
2023-02-14T05:51:08.324Z,88.70
2023-02-14T05:53:35.624Z,65.07
2023-02-14T05:56:03.189Z,88.93
2023-02-14T05:58:30.553Z,57.60
2023-02-14T06:00:58.876Z,95.40
2023-02-14T06:03:26.610Z,128.07
2023-02-14T06:05:53.938Z,60.43
2023-02-14T06:08:21.327Z,67.67
2023-02-14T06:10:48.776Z,399.13
2023-02-14T06:13:16.159Z,78.17
2023-02-14T06:15:43.895Z,62.30
2023-02-14T06:18:11.296Z,73.17
2023-02-14T06:20:38.768Z,72.50
2023-02-14T06:23:06.149Z,75.77
2023-02-14T06:25:34.199Z,66.90
2023-02-14T06:28:01.608Z,61.70
2023-02-14T06:30:29.144Z,96.33
2023-02-14T06:32:56.607Z,312.23
2023-02-14T06:35:23.979Z,426.40
2023-02-14T06:37:51.442Z,262.03
2023-02-14T06:40:19.747Z,1261.00
2023-02-14T06:42:50.026Z,587.53
2023-02-14T06:45:17.410Z,641.70
2023-02-14T06:47:45.595Z,1297.70
2023-02-14T06:50:13.078Z,945.67
2023-02-14T06:52:42.026Z,1998.93
2023-02-14T06:55:09.656Z,235.00
2023-02-14T06:57:37.079Z,77.90
2023-02-14T07:00:04.696Z,234.37
2023-02-14T07:02:32.355Z,44.63
2023-02-14T07:04:59.826Z,72.77
2023-02-14T07:07:27.139Z,41.03
2023-02-14T07:09:54.550Z,56.77
2023-02-14T07:12:21.822Z,38.20
2023-02-14T07:14:49.150Z,42.27
2023-02-14T07:17:16.495Z,43.20
2023-02-14T07:19:43.823Z,43.23
2023-02-14T07:22:11.148Z,137.70
2023-02-14T07:24:38.545Z,38.57
2023-02-14T07:27:06.256Z,80.87
2023-02-14T07:29:33.565Z,254.97
2023-02-14T07:32:01.008Z,34.73
2023-02-14T07:34:28.519Z,37.47
2023-02-14T07:36:55.853Z,328.77
2023-02-14T07:39:23.592Z,39.30
2023-02-14T07:41:50.982Z,47.17
2023-02-14T07:44:19.998Z,75.60
2023-02-14T07:46:47.386Z,156.53
2023-02-14T07:49:14.802Z,58.77
2023-02-14T07:51:42.199Z,34.63
2023-02-14T07:54:09.591Z,32.80
2023-02-14T07:56:37.138Z,35.00
2023-02-14T07:59:04.457Z,370.70
2023-02-14T08:01:31.941Z,663.73
2023-02-14T08:03:59.204Z,706.30
2023-02-14T08:06:27.893Z,557.57
2023-02-14T08:08:55.307Z,462.97
2023-02-14T08:11:51.926Z,214.67
2023-02-14T08:14:19.521Z,945.00
2023-02-14T08:16:46.868Z,280.73
2023-02-14T08:19:14.267Z,48.97
2023-02-14T08:21:41.693Z,219.80
2023-02-14T08:24:09.104Z,476.00
2023-02-14T08:26:37.612Z,305.30
2023-02-14T08:29:05.248Z,1958.83
2023-02-14T08:31:35.978Z,313.90
2023-02-14T08:34:04.026Z,160.10
2023-02-14T08:36:31.352Z,333.57
2023-02-14T08:38:58.943Z,173.43
2023-02-14T08:41:26.237Z,129.03
2023-02-14T08:43:53.718Z,203.90
2023-02-14T08:46:21.233Z,509.37
2023-02-14T08:48:49.993Z,1067.73
2023-02-14T08:51:17.557Z,1237.10
2023-02-14T08:53:46.273Z,711.13
2023-02-14T08:56:14.803Z,587.60
2023-02-14T08:58:42.441Z,677.27
2023-02-14T09:01:10.459Z,423.27
2023-02-14T09:03:38.667Z,50.97
2023-02-14T09:06:07.305Z,75.13
2023-02-14T09:08:35.048Z,38.33
2023-02-14T09:11:09.423Z,43.57
2023-02-14T09:13:36.854Z,45.50
2023-02-14T09:16:05.791Z,65.87
2023-02-14T09:18:33.635Z,39.13
2023-02-14T09:21:01.822Z,43.63
2023-02-14T09:23:29.367Z,43.20
2023-02-14T09:26:05.100Z,33.80
2023-02-14T09:28:32.474Z,35.27
2023-02-14T09:31:00.410Z,38.87
2023-02-14T09:33:29.178Z,36.90
2023-02-14T09:36:16.651Z,35.03
2023-02-14T09:38:44.061Z,62.30
2023-02-14T09:41:22.078Z,33.83
2023-02-14T09:43:56.451Z,36.07
2023-02-14T09:46:25.502Z,39.07
2023-02-14T09:48:54.008Z,33.97
2023-02-14T09:51:23.516Z,34.23
2023-02-14T09:53:52.367Z,38.60
2023-02-14T09:56:37.260Z,37.23
2023-02-14T09:59:18.744Z,34.83
2023-02-14T10:01:50.873Z,37.60
2023-02-14T10:04:27.356Z,34.83
2023-02-14T10:07:14.504Z,32.30
2023-02-14T10:09:51.175Z,31.80
2023-02-14T10:12:28.353Z,29.50
2023-02-14T10:14:57.662Z,32.90
2023-02-14T10:17:40.438Z,34.40
2023-02-14T10:20:28.292Z,35.50
2023-02-14T10:23:00.899Z,37.53
2023-02-14T10:25:35.471Z,29.80
2023-02-14T10:28:03.107Z,29.90
2023-02-14T10:30:37.640Z,26.43
2023-02-14T10:33:18.260Z,30.23
2023-02-14T10:35:45.647Z,28.97
2023-02-14T10:38:18.867Z,29.23
2023-02-14T10:40:46.315Z,28.40
2023-02-14T10:43:17.978Z,27.90
2023-02-14T10:45:54.105Z,32.03
2023-02-14T10:48:36.668Z,30.07
2023-02-14T10:51:07.296Z,38.83
2023-02-14T10:53:34.647Z,25.50
2023-02-14T10:56:20.430Z,30.13
2023-02-14T10:58:49.094Z,32.57
2023-02-14T11:01:17.909Z,33.67
2023-02-14T11:03:58.450Z,31.40
2023-02-14T11:06:25.970Z,33.93
2023-02-14T11:08:55.555Z,28.10
2023-02-14T11:11:23.862Z,31.57
2023-02-14T11:13:51.618Z,26.67
2023-02-14T11:16:29.119Z,28.43
2023-02-14T11:19:22.931Z,26.90
2023-02-14T11:21:51.815Z,32.37
2023-02-14T11:24:32.660Z,28.03
2023-02-14T11:27:02.603Z,29.17
2023-02-14T11:29:31.928Z,30.10
2023-02-14T11:32:07.915Z,27.00
2023-02-14T11:34:42.690Z,31.33
2023-02-14T11:37:22.897Z,24.37
2023-02-14T11:39:50.776Z,28.43
2023-02-14T11:42:33.501Z,29.23
2023-02-14T11:45:00.879Z,26.70
2023-02-14T11:47:34.823Z,26.43
2023-02-14T11:50:06.043Z,27.70
2023-02-14T11:52:35.013Z,26.90
2023-02-14T11:55:02.464Z,37.23
2023-02-14T11:57:33.501Z,27.83
2023-02-14T12:00:04.557Z,26.90
2023-02-14T12:02:44.336Z,27.73
2023-02-14T12:05:23.870Z,27.70
2023-02-14T12:07:52.470Z,31.07
2023-02-14T12:10:27.064Z,30.80
2023-02-14T12:13:02.328Z,34.30
2023-02-14T12:15:34.542Z,24.47
2023-02-14T12:18:20.472Z,27.57
2023-02-14T12:21:12.940Z,26.87
2023-02-14T12:23:49.451Z,25.60
2023-02-14T12:26:35.703Z,27.33
2023-02-14T12:29:21.633Z,25.77
2023-02-14T12:31:50.149Z,29.80
2023-02-14T12:34:18.738Z,27.03
2023-02-14T12:37:05.221Z,24.47
2023-02-14T12:39:38.607Z,25.33
2023-02-14T12:42:27.073Z,28.40
2023-02-14T12:45:13.400Z,23.60
2023-02-14T12:47:48.783Z,24.80
2023-02-14T12:50:45.676Z,25.30
2023-02-14T12:53:33.381Z,22.67
2023-02-14T12:56:23.391Z,24.07
2023-02-14T12:58:56.173Z,23.97
2023-02-14T13:01:42.472Z,25.80
2023-02-14T13:04:22.072Z,22.73
2023-02-14T13:06:56.227Z,20.77
2023-02-14T13:09:29.835Z,17.80
2023-02-14T13:12:11.098Z,17.87
2023-02-14T13:14:41.535Z,21.00
2023-02-14T13:17:19.355Z,21.50
2023-02-14T13:20:05.286Z,21.07
2023-02-14T13:22:33.951Z,22.73
2023-02-14T13:25:03.858Z,21.30
2023-02-14T13:27:33.036Z,21.57
2023-02-14T13:30:02.856Z,21.00
2023-02-14T13:32:33.740Z,26.17
2023-02-14T13:35:01.434Z,26.07
2023-02-14T13:37:28.889Z,19.87
2023-02-14T13:39:57.911Z,19.83
2023-02-14T13:42:44.119Z,22.37
2023-02-14T13:45:30.452Z,21.13
2023-02-14T13:48:14.720Z,18.77
2023-02-14T13:50:51.077Z,16.33
2023-02-14T13:53:33.734Z,20.07
2023-02-14T13:56:01.955Z,16.57
2023-02-14T13:58:29.584Z,16.03
2023-02-14T14:00:57.238Z,13.43
2023-02-14T14:03:30.634Z,14.83
2023-02-14T14:06:00.787Z,13.20
2023-02-14T14:08:30.644Z,10.40
2023-02-14T14:11:05.805Z,9.77
2023-02-14T14:13:42.307Z,9.80
2023-02-14T14:16:28.096Z,12.40
2023-02-14T14:19:01.748Z,12.60
2023-02-14T14:21:35.353Z,11.67
2023-02-14T14:24:21.697Z,10.33
2023-02-14T14:26:49.036Z,10.27
2023-02-14T14:29:19.033Z,8.40
2023-02-14T14:31:47.914Z,8.87
2023-02-14T14:34:17.938Z,10.97
2023-02-14T14:36:45.939Z,10.13
2023-02-14T14:39:13.320Z,8.93
2023-02-14T14:41:41.496Z,16.70
2023-02-14T14:44:08.930Z,20.17
2023-02-14T14:46:36.337Z,16.90
2023-02-14T14:49:05.813Z,24.43
2023-02-14T14:51:35.564Z,16.73
2023-02-14T14:54:06.113Z,19.27
2023-02-14T14:56:35.003Z,20.27
2023-02-14T14:59:28.649Z,18.20
2023-02-14T15:01:56.168Z,17.57
2023-02-14T15:04:31.804Z,19.00
2023-02-14T15:07:17.610Z,18.50
2023-02-14T15:09:45.154Z,19.37
2023-02-14T15:12:32.125Z,19.00
2023-02-14T15:14:59.578Z,17.43
2023-02-14T15:17:28.380Z,17.27
2023-02-14T15:20:00.453Z,17.20
2023-02-14T15:22:29.858Z,18.80
2023-02-14T15:24:58.596Z,18.87
2023-02-14T15:27:26.766Z,16.77
2023-02-14T15:30:04.832Z,19.90
2023-02-14T15:32:32.919Z,16.93
2023-02-14T15:35:03.197Z,18.37
2023-02-14T15:37:30.903Z,20.47
2023-02-14T15:39:58.627Z,17.93
2023-02-14T15:42:29.339Z,23.87
2023-02-14T15:45:15.157Z,20.93
2023-02-14T15:47:43.725Z,26.07
2023-02-14T15:50:24.216Z,20.37
2023-02-14T15:52:52.926Z,18.27
2023-02-14T15:55:23.357Z,21.63
2023-02-14T15:57:55.925Z,21.00
2023-02-14T16:00:23.898Z,24.63
2023-02-14T16:02:57.293Z,19.53
2023-02-14T16:05:26.904Z,20.67
2023-02-14T16:08:07.846Z,22.63
2023-02-14T16:10:37.301Z,20.80
2023-02-14T16:13:04.890Z,23.63
2023-02-14T16:15:36.609Z,18.03
2023-02-14T16:18:08.199Z,21.30
2023-02-14T16:20:40.837Z,18.70
2023-02-14T16:23:19.280Z,20.40
2023-02-14T16:25:46.977Z,23.10
2023-02-14T16:28:14.765Z,21.20
2023-02-14T16:30:42.970Z,23.17
2023-02-14T16:33:15.992Z,27.70
2023-02-14T16:35:43.454Z,27.77
2023-02-14T16:38:13.640Z,26.73
2023-02-14T16:40:42.918Z,29.37
2023-02-14T16:43:14.747Z,27.87
2023-02-14T16:45:43.066Z,26.53
2023-02-14T16:48:10.872Z,31.60
2023-02-14T16:50:39.419Z,28.57
2023-02-14T16:53:09.168Z,26.37
2023-02-14T16:55:36.676Z,30.20
2023-02-14T16:58:04.219Z,24.70
2023-02-14T17:00:31.597Z,33.40
2023-02-14T17:03:11.349Z,26.57
2023-02-14T17:05:39.402Z,21.60
2023-02-14T17:08:08.291Z,25.83
2023-02-14T17:10:36.092Z,25.90
2023-02-14T17:13:04.221Z,22.80
2023-02-14T17:15:32.727Z,31.17
2023-02-14T17:18:03.886Z,26.47
2023-02-14T17:20:31.696Z,24.87
2023-02-14T17:22:59.570Z,32.47
2023-02-14T17:25:26.932Z,29.87
2023-02-14T17:27:56.339Z,34.93
2023-02-14T17:30:24.141Z,25.87
2023-02-14T17:32:51.654Z,29.27
2023-02-14T17:35:19.120Z,34.03
2023-02-14T17:37:46.463Z,32.50
2023-02-14T17:40:15.002Z,38.30
2023-02-14T17:42:42.600Z,40.10
2023-02-14T17:45:11.889Z,35.93
2023-02-14T17:47:40.496Z,38.93
2023-02-14T17:50:08.258Z,35.40
2023-02-14T17:52:35.662Z,37.93
2023-02-14T17:55:03.875Z,35.97
2023-02-14T17:57:31.196Z,39.57
2023-02-14T17:59:58.587Z,40.33
2023-02-14T18:02:26.393Z,33.00
2023-02-14T18:04:53.806Z,39.90
2023-02-14T18:07:21.575Z,40.13
2023-02-14T18:09:48.943Z,38.63
2023-02-14T18:12:16.347Z,74.77
2023-02-14T18:14:43.883Z,84.37
2023-02-14T18:17:13.619Z,49.23
2023-02-14T18:19:41.231Z,55.23
2023-02-14T18:22:08.720Z,53.73
2023-02-14T18:24:36.222Z,51.17
2023-02-14T18:27:05.852Z,63.67
2023-02-14T18:29:33.727Z,56.47
2023-02-14T18:32:01.280Z,53.83
2023-02-14T18:34:29.075Z,53.30
2023-02-14T18:36:57.210Z,59.33
2023-02-14T18:39:25.769Z,70.23
2023-02-14T18:41:53.065Z,75.20
2023-02-14T18:44:21.918Z,66.70
2023-02-14T18:46:49.287Z,52.10
2023-02-14T18:49:16.631Z,54.97
2023-02-14T18:51:44.132Z,58.70
2023-02-14T18:54:11.563Z,50.20
2023-02-14T18:56:39.370Z,49.10
2023-02-14T18:59:10.487Z,52.77
2023-02-14T19:01:40.626Z,46.00
2023-02-14T19:04:09.274Z,50.77
2023-02-14T19:06:36.924Z,48.10
2023-02-14T19:09:07.687Z,54.20
2023-02-14T19:11:35.657Z,51.07
2023-02-14T19:14:09.547Z,57.20
2023-02-14T19:16:39.090Z,58.07
2023-02-14T19:19:06.644Z,56.17
2023-02-14T19:21:35.043Z,55.43
2023-02-14T19:24:03.307Z,51.83
2023-02-14T19:26:37.112Z,48.37
2023-02-14T19:29:06.466Z,42.07
2023-02-14T19:31:37.993Z,52.00
2023-02-14T19:34:06.899Z,46.60
2023-02-14T19:36:36.332Z,54.87
2023-02-14T19:39:04.199Z,68.90
2023-02-14T19:41:34.360Z,57.37
2023-02-14T19:44:02.552Z,51.07
2023-02-14T19:46:30.050Z,49.73
2023-02-14T19:48:57.966Z,53.93
2023-02-14T19:51:27.754Z,87.77
2023-02-14T19:53:55.812Z,80.43
2023-02-14T19:56:24.298Z,65.20
2023-02-14T19:58:52.456Z,60.37
2023-02-14T20:01:27.984Z,66.20
2023-02-14T20:03:55.772Z,59.73
2023-02-14T20:06:24.278Z,53.30
2023-02-14T20:08:51.756Z,55.90
2023-02-14T20:11:28.243Z,58.90
2023-02-14T20:13:55.752Z,53.80
2023-02-14T20:16:24.027Z,58.60
2023-02-14T20:18:51.652Z,58.10
2023-02-14T20:21:24.063Z,56.90
2023-02-14T20:24:00.707Z,56.93
2023-02-14T20:26:32.398Z,57.87
2023-02-14T20:29:04.161Z,64.00
2023-02-14T20:31:32.236Z,53.30
2023-02-14T20:33:59.734Z,55.87
2023-02-14T20:36:27.255Z,52.43
2023-02-14T20:38:59.107Z,66.07
2023-02-14T20:41:27.679Z,60.73
2023-02-14T20:44:04.617Z,63.40
2023-02-14T20:46:38.756Z,50.60
2023-02-14T20:49:06.245Z,59.43
2023-02-14T20:51:34.922Z,49.47
2023-02-14T20:54:03.937Z,50.10
2023-02-14T20:56:31.328Z,52.33
2023-02-14T20:59:01.122Z,49.73
2023-02-14T21:01:28.761Z,49.40
2023-02-14T21:03:56.251Z,51.23
2023-02-14T21:06:25.242Z,52.77
2023-02-14T21:08:53.170Z,49.90
2023-02-14T21:11:22.524Z,54.80
2023-02-14T21:13:49.905Z,47.27
2023-02-14T21:16:19.183Z,49.90
2023-02-14T21:18:48.785Z,46.93
2023-02-14T21:21:19.172Z,49.60
2023-02-14T21:23:48.473Z,48.40
2023-02-14T21:26:16.249Z,62.17
2023-02-14T21:28:43.651Z,48.40
2023-02-14T21:31:12.374Z,55.67
2023-02-14T21:33:39.966Z,66.77
2023-02-14T21:36:11.831Z,50.97
2023-02-14T21:38:39.262Z,53.10
2023-02-14T21:41:08.721Z,52.77
2023-02-14T21:43:37.433Z,53.67
2023-02-14T21:46:06.249Z,63.07
2023-02-14T21:48:52.619Z,53.83
2023-02-14T21:51:20.654Z,51.77
2023-02-14T21:53:48.084Z,48.97
2023-02-14T21:56:19.856Z,55.93
2023-02-14T21:58:48.438Z,57.30
2023-02-14T22:01:23.036Z,56.97
2023-02-14T22:03:50.659Z,72.00
2023-02-14T22:06:18.169Z,67.47
2023-02-14T22:08:45.542Z,63.57
2023-02-14T22:11:14.180Z,59.47
2023-02-14T22:13:41.822Z,54.63
2023-02-14T22:16:10.806Z,44.20
2023-02-14T22:18:38.723Z,49.20
2023-02-14T22:21:07.293Z,39.70
2023-02-14T22:23:34.819Z,47.83
2023-02-14T22:26:10.069Z,43.30
2023-02-14T22:28:37.471Z,43.20
2023-02-14T22:31:05.245Z,37.70
2023-02-14T22:33:32.797Z,42.13
2023-02-14T22:36:01.190Z,46.83
2023-02-14T22:38:28.875Z,42.30
2023-02-14T22:40:56.604Z,39.60
2023-02-14T22:43:24.092Z,45.40
2023-02-14T22:45:51.562Z,38.37
2023-02-14T22:48:20.328Z,42.07
2023-02-14T22:50:47.696Z,41.23
2023-02-14T22:53:15.060Z,35.70
2023-02-14T22:55:42.548Z,38.37
2023-02-14T22:58:09.920Z,40.13
2023-02-14T23:00:37.292Z,37.17
2023-02-14T23:03:04.768Z,36.30
2023-02-14T23:05:32.256Z,30.10
2023-02-14T23:07:59.658Z,31.97
2023-02-14T23:10:27.375Z,31.30
2023-02-14T23:13:13.337Z,45.27
2023-02-14T23:15:59.782Z,46.77
2023-02-14T23:18:53.853Z,40.43
2023-02-14T23:21:39.977Z,51.27
2023-02-14T23:24:07.416Z,46.50
2023-02-14T23:26:37.129Z,44.97
2023-02-14T23:29:04.708Z,39.70
2023-02-14T23:31:32.187Z,37.40
2023-02-14T23:33:59.584Z,43.60
2023-02-14T23:36:26.933Z,47.00
2023-02-14T23:38:54.330Z,40.03
2023-02-14T23:41:40.426Z,47.30
2023-02-14T23:44:08.170Z,44.17
2023-02-14T23:46:35.540Z,48.40
2023-02-14T23:49:03.392Z,46.37
2023-02-14T23:51:30.777Z,55.83
2023-02-14T23:53:58.113Z,41.87
2023-02-14T23:56:25.743Z,51.70
2023-02-14T23:58:53.083Z,57.50
